createdAt,value
2018-06-19T00:01:36.757Z,13.70
2018-06-19T00:04:06.216Z,13.70
2018-06-19T00:06:35.617Z,13.60
2018-06-19T00:11:51.017Z,13.40
2018-06-19T00:14:20.409Z,13.50
2018-06-19T00:16:49.898Z,13.50
2018-06-19T00:19:19.262Z,13.50
2018-06-19T00:21:56.173Z,13.50
2018-06-19T00:24:26.333Z,13.40
2018-06-19T00:26:55.647Z,13.40
2018-06-19T00:29:25.031Z,13.30
2018-06-19T00:32:06.189Z,13.10
2018-06-19T00:34:35.581Z,13.20
2018-06-19T00:37:04.904Z,13.30
2018-06-19T00:42:20.502Z,13.30
2018-06-19T00:44:49.890Z,13.30
2018-06-19T00:47:19.278Z,13.30
2018-06-19T00:49:48.723Z,13.40
2018-06-19T00:52:19.104Z,13.30
2018-06-19T00:54:48.504Z,13.30
2018-06-19T00:57:17.826Z,13.20
2018-06-19T00:59:47.214Z,13.30
2018-06-19T01:02:16.654Z,13.20
2018-06-19T01:04:46.037Z,13.30
2018-06-19T01:07:15.421Z,13.20
2018-06-19T01:09:44.740Z,13.30
2018-06-19T01:12:15.157Z,13.40
2018-06-19T01:14:44.548Z,13.50
2018-06-19T01:17:13.889Z,13.60
2018-06-19T01:19:43.214Z,13.70
2018-06-19T01:22:30.197Z,13.80
2018-06-19T01:24:59.531Z,13.80
2018-06-19T01:27:28.856Z,13.90
2018-06-19T01:29:58.170Z,13.80
2018-06-19T01:32:33.181Z,13.90
2018-06-19T01:35:02.507Z,13.90
2018-06-19T01:37:31.917Z,13.80
2018-06-19T01:40:01.235Z,13.70
2018-06-19T01:42:32.715Z,13.80
2018-06-19T01:45:02.109Z,13.90
2018-06-19T01:47:31.408Z,13.70
2018-06-19T01:50:00.744Z,13.90
2018-06-19T01:52:38.076Z,13.90
2018-06-19T01:55:07.453Z,13.80
2018-06-19T01:57:37.246Z,13.70
2018-06-19T02:00:06.549Z,13.70
2018-06-19T02:02:50.249Z,13.90
2018-06-19T02:05:19.665Z,14.00
2018-06-19T02:07:48.926Z,14.10
2018-06-19T02:10:18.268Z,14.20
2018-06-19T02:13:05.518Z,14.30
2018-06-19T02:15:34.855Z,14.30
2018-06-19T02:18:04.289Z,14.10
2018-06-19T02:20:33.710Z,14.10
2018-06-19T02:23:22.631Z,14.20
2018-06-19T02:25:51.981Z,14.30
2018-06-19T02:28:21.425Z,14.30
2018-06-19T02:30:50.796Z,14.30
2018-06-19T02:33:20.285Z,14.40
2018-06-19T02:35:49.609Z,14.40
2018-06-19T02:38:19.094Z,14.30
2018-06-19T02:40:48.397Z,14.30
2018-06-19T02:43:27.670Z,14.10
2018-06-19T02:45:57.042Z,13.90
2018-06-19T02:48:26.439Z,13.80
2018-06-19T02:50:55.787Z,13.90
2018-06-19T02:53:25.141Z,13.80
2018-06-19T02:55:54.394Z,13.80
2018-06-19T02:58:24.561Z,13.90
2018-06-19T03:00:53.964Z,14.00
2018-06-19T03:03:23.417Z,14.10
2018-06-19T03:05:52.790Z,14.20
2018-06-19T03:08:22.134Z,14.20
2018-06-19T03:10:51.494Z,14.30
2018-06-19T03:13:20.882Z,14.30
2018-06-19T03:15:50.197Z,14.10
2018-06-19T03:18:19.581Z,13.90
2018-06-19T03:20:48.926Z,13.90
2018-06-19T03:23:18.368Z,13.80
2018-06-19T03:25:47.670Z,13.80
2018-06-19T03:28:16.997Z,13.80
2018-06-19T03:30:46.350Z,13.70
2018-06-19T03:33:22.765Z,13.90
2018-06-19T03:35:52.125Z,13.90
2018-06-19T03:38:21.492Z,14.00
2018-06-19T03:40:50.860Z,14.10
2018-06-19T03:43:20.285Z,14.10
2018-06-19T03:45:50.021Z,14.10
2018-06-19T03:48:19.457Z,14.10
2018-06-19T03:50:48.794Z,14.10
2018-06-19T03:53:18.276Z,14.10
2018-06-19T03:55:47.593Z,14.10
2018-06-19T03:58:16.949Z,14.10
2018-06-19T04:00:46.252Z,14.20
2018-06-19T04:03:43.862Z,14.20
2018-06-19T04:06:13.194Z,14.30
2018-06-19T04:08:42.506Z,14.30
2018-06-19T04:11:11.867Z,14.30
2018-06-19T04:13:41.229Z,14.20
2018-06-19T04:16:10.617Z,14.20
2018-06-19T04:18:39.941Z,14.30
2018-06-19T04:21:09.300Z,14.20
2018-06-19T04:23:38.686Z,14.10
2018-06-19T04:26:08.076Z,14.00
2018-06-19T04:28:37.437Z,14.00
2018-06-19T04:31:06.742Z,14.00
2018-06-19T04:33:38.214Z,14.10
2018-06-19T04:36:07.616Z,14.00
2018-06-19T04:38:37.004Z,14.10
2018-06-19T04:41:06.517Z,14.10
2018-06-19T04:43:37.898Z,14.00
2018-06-19T04:46:07.272Z,14.10
2018-06-19T04:48:36.704Z,14.10
2018-06-19T04:51:06.150Z,14.30
2018-06-19T04:53:47.964Z,14.30
2018-06-19T04:56:17.341Z,14.40
2018-06-19T04:58:49.529Z,14.40
2018-06-19T05:01:18.816Z,14.60
2018-06-19T05:03:48.247Z,14.70
2018-06-19T05:06:17.542Z,14.70
2018-06-19T05:08:46.936Z,14.80
2018-06-19T05:11:16.348Z,14.90
2018-06-19T05:13:45.756Z,15.10
2018-06-19T05:16:15.055Z,15.20
2018-06-19T05:18:44.426Z,15.40
2018-06-19T05:21:13.699Z,15.50
2018-06-19T05:23:50.189Z,15.70
2018-06-19T05:26:19.755Z,15.80
2018-06-19T05:28:49.121Z,16.00
2018-06-19T05:31:18.469Z,16.20
2018-06-19T05:33:47.829Z,16.30
2018-06-19T05:36:17.236Z,16.30
2018-06-19T05:38:46.573Z,16.40
2018-06-19T05:41:15.933Z,16.60
2018-06-19T05:43:55.745Z,16.80
2018-06-19T05:46:25.105Z,17.00
2018-06-19T05:48:54.404Z,17.20
2018-06-19T05:51:23.798Z,17.30
2018-06-19T05:53:53.156Z,17.40
2018-06-19T05:56:22.481Z,17.60
2018-06-19T05:58:51.869Z,17.70
2018-06-19T06:01:21.272Z,17.80
2018-06-19T06:03:50.599Z,18.00
2018-06-19T06:06:20.249Z,18.20
2018-06-19T06:08:49.628Z,18.40
2018-06-19T06:13:50.126Z,18.70
2018-06-19T06:16:19.519Z,18.70
2018-06-19T06:18:48.966Z,18.60
2018-06-19T06:21:20.396Z,18.60
2018-06-19T06:23:49.829Z,18.80
2018-06-19T06:26:19.261Z,18.80
2018-06-19T06:28:48.639Z,18.80
2018-06-19T06:31:17.946Z,18.70
2018-06-19T06:33:47.315Z,18.80
2018-06-19T06:36:16.685Z,18.80
2018-06-19T06:38:46.174Z,18.80
2018-06-19T06:41:15.581Z,18.80
2018-06-19T06:43:49.314Z,19.00
2018-06-19T06:46:18.646Z,19.30
2018-06-19T06:48:49.381Z,19.50
2018-06-19T06:53:48.156Z,19.60
2018-06-19T06:56:18.173Z,19.50
2018-06-19T06:58:47.586Z,19.30
2018-06-19T07:01:16.940Z,19.20
2018-06-19T07:03:46.226Z,19.50
2018-06-19T07:06:15.565Z,19.80
2018-06-19T07:08:44.930Z,19.90
2018-06-19T07:11:14.273Z,20.00
2018-06-19T07:13:43.736Z,20.10
2018-06-19T07:16:13.075Z,19.80
2018-06-19T07:18:42.657Z,19.80
2018-06-19T07:21:11.963Z,19.80
2018-06-19T07:23:41.278Z,19.90
2018-06-19T07:26:10.692Z,19.90
2018-06-19T07:28:40.007Z,20.00
2018-06-19T07:31:10.043Z,20.30
2018-06-19T07:33:44.589Z,20.40
2018-06-19T07:36:14.013Z,20.80
2018-06-19T07:38:43.333Z,20.80
2018-06-19T07:41:12.736Z,20.90
2018-06-19T07:43:43.086Z,20.70
2018-06-19T07:46:12.569Z,20.70
2018-06-19T07:48:41.882Z,20.90
2018-06-19T07:51:11.274Z,20.70
2018-06-19T07:53:53.182Z,21.10
2018-06-19T07:56:22.510Z,21.20
2018-06-19T07:58:51.865Z,21.40
2018-06-19T08:01:24.061Z,21.20
2018-06-19T08:03:53.541Z,21.00
2018-06-19T08:06:23.041Z,20.80
2018-06-19T08:08:52.428Z,20.60
2018-06-19T08:11:21.801Z,20.40
2018-06-19T08:13:51.129Z,20.40
2018-06-19T08:16:20.354Z,20.30
2018-06-19T08:21:18.809Z,20.90
2018-06-19T08:23:48.117Z,21.40
2018-06-19T08:26:17.542Z,22.10
2018-06-19T08:28:46.881Z,22.30
2018-06-19T08:31:16.382Z,22.30
2018-06-19T08:33:45.817Z,22.10
2018-06-19T08:36:15.216Z,22.20
2018-06-19T08:38:44.545Z,22.20
2018-06-19T08:41:23.847Z,21.90
2018-06-19T08:43:52.977Z,22.80
2018-06-19T08:46:22.076Z,23.30
2018-06-19T08:48:51.238Z,23.70
2018-06-19T08:51:20.402Z,22.90
2018-06-19T08:53:49.769Z,22.90
2018-06-19T08:56:19.249Z,22.80
2018-06-19T08:58:49.457Z,22.30
2018-06-19T09:01:18.856Z,22.00
2018-06-19T09:03:48.257Z,22.40
2018-06-19T09:06:17.594Z,23.10
2018-06-19T09:08:47.090Z,22.80
2018-06-19T09:11:16.438Z,22.50
2018-06-19T09:13:45.802Z,21.90
2018-06-19T09:16:16.039Z,22.00
2018-06-19T09:18:45.509Z,22.30
2018-06-19T09:21:16.151Z,22.20
2018-06-19T09:24:02.090Z,22.40
2018-06-19T09:26:31.169Z,22.80
2018-06-19T09:29:00.423Z,22.50
2018-06-19T09:31:50.828Z,22.30
2018-06-19T09:34:20.183Z,22.00
2018-06-19T09:37:02.104Z,21.90
2018-06-19T09:39:43.664Z,22.00
2018-06-19T09:42:18.121Z,22.70
2018-06-19T09:44:47.269Z,23.10
2018-06-19T09:47:16.569Z,23.80
2018-06-19T09:49:45.662Z,24.30
2018-06-19T09:54:47.260Z,23.50
2018-06-19T09:57:16.351Z,23.20
2018-06-19T09:59:45.507Z,22.80
2018-06-19T10:02:22.293Z,22.60
2018-06-19T10:07:20.461Z,23.40
2018-06-19T10:09:51.226Z,23.60
2018-06-19T10:12:22.664Z,24.10
2018-06-19T10:14:52.105Z,24.10
2018-06-19T10:17:28.833Z,24.20
2018-06-19T10:19:57.924Z,23.80
2018-06-19T10:22:44.259Z,24.10
2018-06-19T10:25:20.618Z,24.10
2018-06-19T10:27:49.767Z,23.40
2018-06-19T10:30:18.886Z,23.10
2018-06-19T10:32:48.220Z,23.10
2018-06-19T10:35:18.379Z,23.40
2018-06-19T10:37:49.277Z,23.10
2018-06-19T10:40:18.954Z,23.40
2018-06-19T10:43:22.470Z,23.40
2018-06-19T10:45:51.675Z,23.40
2018-06-19T10:48:20.769Z,23.10
2018-06-19T10:50:49.874Z,23.00
2018-06-19T10:53:42.984Z,23.30
2018-06-19T10:56:12.302Z,23.70
2018-06-19T10:58:41.652Z,23.60
2018-06-19T11:01:10.981Z,23.70
2018-06-19T11:03:42.110Z,23.80
2018-06-19T11:06:11.289Z,24.30
2018-06-19T11:08:41.186Z,24.80
2018-06-19T11:11:10.567Z,24.60
2018-06-19T11:13:44.631Z,24.40
2018-06-19T11:16:13.773Z,24.00
2018-06-19T11:18:42.989Z,23.50
2018-06-19T11:21:12.317Z,23.90
2018-06-19T11:23:43.242Z,23.80
2018-06-19T11:26:12.906Z,24.40
2018-06-19T11:28:43.308Z,24.90
2018-06-19T11:31:12.645Z,24.60
2018-06-19T11:33:44.015Z,24.60
2018-06-19T11:36:13.851Z,24.80
2018-06-19T11:38:43.299Z,25.30
2018-06-19T11:43:42.880Z,24.70
2018-06-19T11:46:12.680Z,25.00
2018-06-19T11:48:42.667Z,24.40
2018-06-19T11:51:12.053Z,24.30
2018-06-19T11:53:56.837Z,24.40
2018-06-19T11:56:28.077Z,25.00
2018-06-19T11:58:57.229Z,25.90
2018-06-19T12:01:26.556Z,26.60
2018-06-19T12:03:55.666Z,26.50
2018-06-19T12:06:25.374Z,26.00
2018-06-19T12:08:54.740Z,26.20
2018-06-19T12:11:24.697Z,25.90
2018-06-19T12:13:54.049Z,25.40
2018-06-19T12:16:24.065Z,25.20
2018-06-19T12:18:53.629Z,25.30
2018-06-19T12:21:25.473Z,25.70
2018-06-19T12:24:14.866Z,25.30
2018-06-19T12:26:44.025Z,25.20
2018-06-19T12:29:14.349Z,25.80
2018-06-19T12:31:43.550Z,26.10
2018-06-19T12:34:13.358Z,26.30
2018-06-19T12:36:42.769Z,25.70
2018-06-19T12:39:12.665Z,25.40
2018-06-19T12:41:47.536Z,25.70
2018-06-19T12:44:16.893Z,25.40
2018-06-19T12:46:46.363Z,25.60
2018-06-19T12:49:26.438Z,25.70
2018-06-19T12:52:20.994Z,25.80
2018-06-19T12:55:34.053Z,25.70
2018-06-19T12:58:03.750Z,25.50
2018-06-19T13:00:33.209Z,25.40
2018-06-19T13:03:29.594Z,25.70
2018-06-19T13:06:16.155Z,26.20
2018-06-19T13:08:45.497Z,26.40
2018-06-19T13:11:14.856Z,26.70
2018-06-19T13:14:03.381Z,26.50
2018-06-19T13:16:49.657Z,26.70
2018-06-19T13:19:35.890Z,27.50
2018-06-19T13:22:05.327Z,28.30
2018-06-19T13:24:34.731Z,28.10
2018-06-19T13:27:04.070Z,30.50
2018-06-19T13:29:51.733Z,31.60
2018-06-19T13:32:23.332Z,31.40
2018-06-19T13:34:52.734Z,31.10
2018-06-19T13:37:22.077Z,29.90
2018-06-19T13:41:25.908Z,28.30
2018-06-19T13:44:13.711Z,27.50
2018-06-19T13:46:43.120Z,27.50
2018-06-19T13:49:12.470Z,27.70
2018-06-19T13:51:42.826Z,28.20
2018-06-19T13:54:12.179Z,27.60
2018-06-19T13:57:40.438Z,27.60
2018-06-19T14:00:20.705Z,28.10
2018-06-19T14:02:50.497Z,27.50
2018-06-19T14:05:20.674Z,28.20
2018-06-19T14:08:03.644Z,27.70
2018-06-19T14:10:49.736Z,27.60
2018-06-19T14:13:22.321Z,28.10
2018-06-19T14:15:51.664Z,28.00
2018-06-19T14:20:50.956Z,27.50
2018-06-19T14:23:22.304Z,27.70
2018-06-19T14:25:51.664Z,28.70
2018-06-19T14:28:21.053Z,28.80
2018-06-19T14:30:51.105Z,28.90
2018-06-19T14:33:33.601Z,29.30
2018-06-19T14:36:02.958Z,28.70
2018-06-19T14:38:32.333Z,28.50
2018-06-19T14:41:01.677Z,27.90
2018-06-19T14:43:38.844Z,28.60
2018-06-19T14:46:08.167Z,28.30
2018-06-19T14:48:37.578Z,27.50
2018-06-19T14:51:07.039Z,27.90
2018-06-19T14:53:38.578Z,29.00
2018-06-19T14:56:07.952Z,29.50
2018-06-19T14:58:37.294Z,28.60
2018-06-19T15:01:06.813Z,28.10
2018-06-19T15:03:51.183Z,28.90
2018-06-19T15:06:20.580Z,28.70
2018-06-19T15:08:50.032Z,29.30
2018-06-19T15:11:19.442Z,29.70
2018-06-19T15:13:56.317Z,28.60
2018-06-19T15:16:25.796Z,29.00
2018-06-19T15:18:55.125Z,29.20
2018-06-19T15:21:24.565Z,28.40
2018-06-19T15:23:53.917Z,27.40
2018-06-19T15:26:23.313Z,27.40
2018-06-19T15:28:52.642Z,26.90
2018-06-19T15:31:22.059Z,27.00
2018-06-19T15:33:57.157Z,27.30
2018-06-19T15:36:26.514Z,27.60
2018-06-19T15:38:55.865Z,27.70
2018-06-19T15:43:54.210Z,26.90
2018-06-19T15:46:23.601Z,26.20
2018-06-19T15:48:52.975Z,25.70
2018-06-19T15:51:22.330Z,26.00
2018-06-19T15:54:09.371Z,25.60
2018-06-19T15:56:38.688Z,25.40
2018-06-19T15:59:10.226Z,25.30
2018-06-19T16:01:41.620Z,25.40
2018-06-19T16:04:11.013Z,25.70
2018-06-19T16:06:40.463Z,25.30
2018-06-19T16:09:11.164Z,25.20
2018-06-19T16:14:13.533Z,24.80
2018-06-19T16:16:42.897Z,25.00
2018-06-19T16:19:12.266Z,24.60
2018-06-19T16:21:55.361Z,24.70
2018-06-19T16:24:24.722Z,24.50
2018-06-19T16:26:54.457Z,24.50
2018-06-19T16:31:56.884Z,24.20
2018-06-19T16:34:26.503Z,24.30
2018-06-19T16:36:55.865Z,24.30
2018-06-19T16:39:25.415Z,24.20
2018-06-19T16:41:54.772Z,24.30
2018-06-19T16:44:24.170Z,24.40
2018-06-19T16:46:53.489Z,24.40
2018-06-19T16:49:22.857Z,25.10
2018-06-19T16:51:59.694Z,25.40
2018-06-19T16:54:29.820Z,25.70
2018-06-19T16:56:59.226Z,26.00
2018-06-19T16:59:29.058Z,26.00
2018-06-19T17:02:00.464Z,25.90
2018-06-19T17:04:29.870Z,26.00
2018-06-19T17:06:59.251Z,25.70
2018-06-19T17:09:29.552Z,25.70
2018-06-19T17:12:06.994Z,25.60
2018-06-19T17:14:36.322Z,25.40
2018-06-19T17:17:05.700Z,25.30
2018-06-19T17:19:35.038Z,25.20
2018-06-19T17:24:33.929Z,25.10
2018-06-19T17:27:03.270Z,25.10
2018-06-19T17:29:32.545Z,25.00
2018-06-19T17:32:02.006Z,24.90
2018-06-19T17:34:31.322Z,24.40
2018-06-19T17:37:00.673Z,24.50
2018-06-19T17:39:29.987Z,24.50
2018-06-19T17:41:59.336Z,24.50
2018-06-19T17:44:28.700Z,24.50
2018-06-19T17:46:58.048Z,24.40
2018-06-19T17:49:27.395Z,24.30
2018-06-19T17:52:00.837Z,24.30
2018-06-19T17:54:30.150Z,24.20
2018-06-19T17:56:59.481Z,24.20
2018-06-19T17:59:28.846Z,24.20
2018-06-19T18:01:58.074Z,24.10
2018-06-19T18:04:27.344Z,24.10
2018-06-19T18:06:56.416Z,24.10
2018-06-19T18:09:25.521Z,23.90
2018-06-19T18:11:54.743Z,23.80
2018-06-19T18:14:23.824Z,23.80
2018-06-19T18:16:52.918Z,23.60
2018-06-19T18:19:22.079Z,23.60
2018-06-19T18:22:00.902Z,23.40
2018-06-19T18:24:30.250Z,23.40
2018-06-19T18:26:59.501Z,23.30
2018-06-19T18:29:28.857Z,23.30
2018-06-19T18:32:17.842Z,23.10
2018-06-19T18:34:47.222Z,23.10
2018-06-19T18:37:16.622Z,22.80
2018-06-19T18:39:45.978Z,22.70
2018-06-19T18:42:16.350Z,22.80
2018-06-19T18:44:45.713Z,22.90
2018-06-19T18:47:15.099Z,22.80
2018-06-19T18:49:44.404Z,22.60
2018-06-19T18:52:18.105Z,22.60
2018-06-19T18:54:47.442Z,22.60
2018-06-19T18:57:16.792Z,22.70
2018-06-19T18:59:46.109Z,22.70
2018-06-19T19:02:17.481Z,22.60
2018-06-19T19:04:46.848Z,22.60
2018-06-19T19:07:16.284Z,22.60
2018-06-19T19:09:50.650Z,22.60
2018-06-19T19:12:24.034Z,22.60
2018-06-19T19:14:58.524Z,22.60
2018-06-19T19:17:32.903Z,22.60
2018-06-19T19:20:02.199Z,22.50
2018-06-19T19:22:33.853Z,22.50
2018-06-19T19:25:03.194Z,22.40
2018-06-19T19:27:37.770Z,22.30
2018-06-19T19:30:11.858Z,22.20
2018-06-19T19:32:49.966Z,22.10
2018-06-19T19:35:19.349Z,22.10
2018-06-19T19:37:53.879Z,21.90
2018-06-19T19:40:23.242Z,21.90
2018-06-19T19:43:13.729Z,21.90
2018-06-19T19:45:43.188Z,21.80
2018-06-19T19:48:17.817Z,21.70
2018-06-19T19:50:47.273Z,21.70
2018-06-19T19:53:18.747Z,21.70
2018-06-19T19:55:53.419Z,21.50
2018-06-19T19:58:27.948Z,21.60
2018-06-19T20:00:57.337Z,21.40
2018-06-19T20:03:28.689Z,21.20
2018-06-19T20:05:58.057Z,21.20
2018-06-19T20:08:27.997Z,21.00
2018-06-19T20:10:57.402Z,21.00
2018-06-19T20:13:34.441Z,20.90
2018-06-19T20:16:03.805Z,21.00
2018-06-19T20:18:33.829Z,20.90
2018-06-19T20:21:03.222Z,20.90
2018-06-19T20:23:43.221Z,20.80
2018-06-19T20:26:12.579Z,20.80
2018-06-19T20:28:41.889Z,20.80
2018-06-19T20:31:11.206Z,20.70
2018-06-19T20:33:42.621Z,20.70
2018-06-19T20:36:12.015Z,20.50
2018-06-19T20:38:41.393Z,20.50
2018-06-19T20:41:10.746Z,20.40
2018-06-19T20:43:46.009Z,20.40
2018-06-19T20:46:17.130Z,20.40
2018-06-19T20:48:47.244Z,20.30
2018-06-19T20:51:16.961Z,20.20
2018-06-19T20:54:12.629Z,20.10
2018-06-19T20:56:42.019Z,20.10
2018-06-19T20:59:11.426Z,20.10
2018-06-19T21:01:42.816Z,20.10
2018-06-19T21:04:12.261Z,20.10
2018-06-19T21:06:41.633Z,20.00
2018-06-19T21:09:11.030Z,19.90
2018-06-19T21:11:41.430Z,19.80
2018-06-19T21:14:10.855Z,19.60
2018-06-19T21:16:40.291Z,19.50
2018-06-19T21:19:09.693Z,19.40
2018-06-19T21:21:41.049Z,19.40
2018-06-19T21:24:10.361Z,19.30
2018-06-19T21:26:39.709Z,19.30
2018-06-19T21:29:08.998Z,19.30
2018-06-19T21:31:45.580Z,19.20
2018-06-19T21:34:14.945Z,19.20
2018-06-19T21:36:44.461Z,19.20
2018-06-19T21:39:13.804Z,19.00
2018-06-19T21:41:47.796Z,19.00
2018-06-19T21:44:17.068Z,18.80
2018-06-19T21:46:46.459Z,18.80
2018-06-19T21:49:15.917Z,18.70
2018-06-19T21:52:06.413Z,18.60
2018-06-19T21:54:35.725Z,18.50
2018-06-19T21:57:05.111Z,18.50
2018-06-19T21:59:34.501Z,18.40
2018-06-19T22:02:07.177Z,18.40
2018-06-19T22:04:36.516Z,18.20
2018-06-19T22:07:05.886Z,18.20
2018-06-19T22:09:35.269Z,18.10
2018-06-19T22:12:08.770Z,18.20
2018-06-19T22:14:38.097Z,18.20
2018-06-19T22:17:07.449Z,18.10
2018-06-19T22:19:36.775Z,18.00
2018-06-19T22:22:34.497Z,18.00
2018-06-19T22:25:03.873Z,17.90
2018-06-19T22:27:33.209Z,17.80
2018-06-19T22:30:02.618Z,17.70
2018-06-19T22:32:52.889Z,17.60
2018-06-19T22:35:22.205Z,17.60
2018-06-19T22:37:51.514Z,17.50
2018-06-19T22:40:20.935Z,17.40
2018-06-19T22:42:52.333Z,17.40
2018-06-19T22:45:21.447Z,17.40
2018-06-19T22:47:50.729Z,17.30
2018-06-19T22:50:20.061Z,17.30
2018-06-19T22:52:51.415Z,17.30
2018-06-19T22:55:20.801Z,17.20
2018-06-19T22:57:50.121Z,17.10
2018-06-19T23:00:21.241Z,17.20
2018-06-19T23:03:11.074Z,17.00
2018-06-19T23:05:40.418Z,16.90
2018-06-19T23:08:09.698Z,17.00
2018-06-19T23:10:38.999Z,17.00
2018-06-19T23:13:12.302Z,17.00
2018-06-19T23:15:41.676Z,16.80
2018-06-19T23:30:09.182Z,16.70
2018-06-19T23:32:45.823Z,16.70
2018-06-19T23:35:15.192Z,16.70
2018-06-19T23:37:44.581Z,16.60
2018-06-19T23:40:14.613Z,16.50
2018-06-19T23:42:45.042Z,16.50
2018-06-19T23:45:14.392Z,16.50
2018-06-19T23:47:43.736Z,16.40
2018-06-19T23:50:13.098Z,16.40
2018-06-19T23:52:50.348Z,16.30
2018-06-19T23:55:19.757Z,16.30
2018-06-19T23:57:49.138Z,16.20
